sensor_id;sensor_type;location;lat;lon;timestamp;temperature;humidity
2447;DHT22;26430;48.818;9.244;2024-01-15T00:01:47;3.20;99.90
2447;DHT22;26430;48.818;9.244;2024-01-15T00:04:13;3.30;99.90
2447;DHT22;26430;48.818;9.244;2024-01-15T00:06:39;3.10;99.90
2447;DHT22;26430;48.818;9.244;2024-01-15T00:09:04;3.00;99.90
2447;DHT22;26430;48.818;9.244;2024-01-15T00:11:32;3.00;99.90
2447;DHT22;26430;48.818;9.244;2024-01-15T00:13:57;3.10;99.90
2447;DHT22;26430;48.818;9.244;2024-01-15T00:16:23;3.10;99.90
2447;DHT22;26430;48.818;9.244;2024-01-15T00:18:49;3.10;99.90
2447;DHT22;26430;48.818;9.244;2024-01-15T00:21:14;3.10;99.90
2447;DHT22;26430;48.818;9.244;2024-01-15T00:23:43;2.90;99.90
2447;DHT22;26430;48.818;9.244;2024-01-15T00:26:12;3.00;99.90
2447;DHT22;26430;48.818;9.244;2024-01-15T00:28:38;3.10;99.90
2447;DHT22;26430;48.818;9.244;2024-01-15T00:31:05;3.10;99.90
2447;DHT22;26430;48.818;9.244;2024-01-15T00:33:31;3.00;99.90
2447;DHT22;26430;48.818;9.244;2024-01-15T00:35:56;2.90;99.90
2447;DHT22;26430;48.818;9.244;2024-01-15T00:38:22;3.00;99.90
2447;DHT22;26430;48.818;9.244;2024-01-15T00:40:47;3.00;99.90
2447;DHT22;26430;48.818;9.244;2024-01-15T00:43:13;2.90;99.90
2447;DHT22;26430;48.818;9.244;2024-01-15T00:45:38;2.90;99.90
2447;DHT22;26430;48.818;9.244;2024-01-15T00:48:05;2.80;99.90
2447;DHT22;26430;48.818;9.244;2024-01-15T00:50:30;2.70;99.90
2447;DHT22;26430;48.818;9.244;2024-01-15T00:52:56;2.60;99.90
2447;DHT22;26430;48.818;9.244;2024-01-15T00:55:22;2.80;99.90
2447;DHT22;26430;48.818;9.244;2024-01-15T00:57:47;2.70;99.90
2447;DHT22;26430;48.818;9.244;2024-01-15T01:00:13;2.80;99.90
2447;DHT22;26430;48.818;9.244;2024-01-15T01:02:39;3.00;99.90
2447;DHT22;26430;48.818;9.244;2024-01-15T01:05:04;2.90;99.90
2447;DHT22;26430;48.818;9.244;2024-01-15T01:07:30;2.90;99.90
2447;DHT22;26430;48.818;9.244;2024-01-15T01:09:55;3.00;99.90
2447;DHT22;26430;48.818;9.244;2024-01-15T01:12:21;3.00;99.90
2447;DHT22;26430;48.818;9.244;2024-01-15T01:14:47;3.20;99.90
2447;DHT22;26430;48.818;9.244;2024-01-15T01:17:12;3.10;99.90
2447;DHT22;26430;48.818;9.244;2024-01-15T01:19:38;3.00;99.90
2447;DHT22;26430;48.818;9.244;2024-01-15T01:22:03;3.10;99.90
2447;DHT22;26430;48.818;9.244;2024-01-15T01:24:29;3.10;99.90
2447;DHT22;26430;48.818;9.244;2024-01-15T01:26:55;3.20;99.90
2447;DHT22;26430;48.818;9.244;2024-01-15T01:29:20;3.20;99.90
2447;DHT22;26430;48.818;9.244;2024-01-15T01:31:46;3.30;99.90
2447;DHT22;26430;48.818;9.244;2024-01-15T01:34:15;3.20;99.90
2447;DHT22;26430;48.818;9.244;2024-01-15T01:36:41;3.40;99.90
2447;DHT22;26430;48.818;9.244;2024-01-15T01:39:06;3.40;99.90
2447;DHT22;26430;48.818;9.244;2024-01-15T01:41:32;3.30;99.90
2447;DHT22;26430;48.818;9.244;2024-01-15T01:43:57;3.40;99.90
2447;DHT22;26430;48.818;9.244;2024-01-15T01:46:24;3.40;99.90
2447;DHT22;26430;48.818;9.244;2024-01-15T01:48:52;3.50;99.90
2447;DHT22;26430;48.818;9.244;2024-01-15T01:51:18;3.70;99.90
2447;DHT22;26430;48.818;9.244;2024-01-15T01:53:44;3.70;99.90
2447;DHT22;26430;48.818;9.244;2024-01-15T01:56:10;3.60;99.90
2447;DHT22;26430;48.818;9.244;2024-01-15T01:58:37;3.60;99.90
2447;DHT22;26430;48.818;9.244;2024-01-15T02:01:02;3.60;99.90
2447;DHT22;26430;48.818;9.244;2024-01-15T02:03:29;3.50;99.90
2447;DHT22;26430;48.818;9.244;2024-01-15T02:05:56;3.50;99.90
2447;DHT22;26430;48.818;9.244;2024-01-15T02:08:22;3.70;99.90
2447;DHT22;26430;48.818;9.244;2024-01-15T02:10:48;3.60;99.90
2447;DHT22;26430;48.818;9.244;2024-01-15T02:13:13;3.60;99.90
2447;DHT22;26430;48.818;9.244;2024-01-15T02:15:40;3.50;99.90
2447;DHT22;26430;48.818;9.244;2024-01-15T02:18:06;3.60;99.90
2447;DHT22;26430;48.818;9.244;2024-01-15T02:20:35;3.50;99.90
2447;DHT22;26430;48.818;9.244;2024-01-15T02:23:14;3.70;99.90
2447;DHT22;26430;48.818;9.244;2024-01-15T02:25:44;3.60;99.90
2447;DHT22;26430;48.818;9.244;2024-01-15T02:28:15;3.70;99.90
2447;DHT22;26430;48.818;9.244;2024-01-15T02:30:41;3.70;99.90
2447;DHT22;26430;48.818;9.244;2024-01-15T02:33:08;3.80;99.90
2447;DHT22;26430;48.818;9.244;2024-01-15T02:35:35;3.70;99.90
2447;DHT22;26430;48.818;9.244;2024-01-15T02:38:04;3.70;99.90
2447;DHT22;26430;48.818;9.244;2024-01-15T02:40:29;3.70;99.90
2447;DHT22;26430;48.818;9.244;2024-01-15T02:42:55;3.70;99.90
2447;DHT22;26430;48.818;9.244;2024-01-15T02:45:21;3.70;99.90
2447;DHT22;26430;48.818;9.244;2024-01-15T02:47:47;3.80;99.90
2447;DHT22;26430;48.818;9.244;2024-01-15T02:50:13;3.90;99.90
2447;DHT22;26430;48.818;9.244;2024-01-15T02:52:38;4.00;99.90
2447;DHT22;26430;48.818;9.244;2024-01-15T02:55:04;4.00;99.90
2447;DHT22;26430;48.818;9.244;2024-01-15T02:57:30;4.00;99.90
2447;DHT22;26430;48.818;9.244;2024-01-15T02:59:56;3.90;99.90
2447;DHT22;26430;48.818;9.244;2024-01-15T03:02:21;3.90;99.90
2447;DHT22;26430;48.818;9.244;2024-01-15T03:04:47;4.00;99.90
2447;DHT22;26430;48.818;9.244;2024-01-15T03:07:13;4.00;99.90
2447;DHT22;26430;48.818;9.244;2024-01-15T03:09:38;3.90;99.90
2447;DHT22;26430;48.818;9.244;2024-01-15T03:12:04;3.90;99.90
2447;DHT22;26430;48.818;9.244;2024-01-15T03:14:30;3.80;99.90
2447;DHT22;26430;48.818;9.244;2024-01-15T03:16:55;3.80;99.90
2447;DHT22;26430;48.818;9.244;2024-01-15T03:19:21;3.70;99.90
2447;DHT22;26430;48.818;9.244;2024-01-15T03:21:46;3.70;99.90
2447;DHT22;26430;48.818;9.244;2024-01-15T03:24:12;3.60;99.90
2447;DHT22;26430;48.818;9.244;2024-01-15T03:26:37;3.60;99.90
2447;DHT22;26430;48.818;9.244;2024-01-15T03:29:03;3.50;99.90
2447;DHT22;26430;48.818;9.244;2024-01-15T03:31:29;3.40;99.90
2447;DHT22;26430;48.818;9.244;2024-01-15T03:33:54;3.40;99.90
2447;DHT22;26430;48.818;9.244;2024-01-15T03:36:20;3.40;99.90
2447;DHT22;26430;48.818;9.244;2024-01-15T03:38:45;3.50;99.90
2447;DHT22;26430;48.818;9.244;2024-01-15T03:41:11;3.60;99.90
2447;DHT22;26430;48.818;9.244;2024-01-15T03:43:36;3.60;99.90
2447;DHT22;26430;48.818;9.244;2024-01-15T03:46:02;3.50;99.90
2447;DHT22;26430;48.818;9.244;2024-01-15T03:48:28;3.50;99.90
2447;DHT22;26430;48.818;9.244;2024-01-15T03:50:53;3.50;99.90
2447;DHT22;26430;48.818;9.244;2024-01-15T03:53:19;3.40;99.90
2447;DHT22;26430;48.818;9.244;2024-01-15T03:55:44;3.40;99.90
2447;DHT22;26430;48.818;9.244;2024-01-15T03:58:10;3.40;99.90
2447;DHT22;26430;48.818;9.244;2024-01-15T04:00:35;3.60;99.90
2447;DHT22;26430;48.818;9.244;2024-01-15T04:03:01;3.50;99.90
2447;DHT22;26430;48.818;9.244;2024-01-15T04:05:26;3.50;99.90
2447;DHT22;26430;48.818;9.244;2024-01-15T04:07:52;3.50;99.90
2447;DHT22;26430;48.818;9.244;2024-01-15T04:10:18;3.60;99.90
2447;DHT22;26430;48.818;9.244;2024-01-15T04:12:43;3.50;99.90
2447;DHT22;26430;48.818;9.244;2024-01-15T04:15:12;3.50;99.90
2447;DHT22;26430;48.818;9.244;2024-01-15T04:17:37;3.50;99.90
2447;DHT22;26430;48.818;9.244;2024-01-15T04:20:03;3.50;99.90
2447;DHT22;26430;48.818;9.244;2024-01-15T04:22:29;3.40;99.90
2447;DHT22;26430;48.818;9.244;2024-01-15T04:24:55;3.40;99.90
2447;DHT22;26430;48.818;9.244;2024-01-15T04:27:20;3.50;99.90
2447;DHT22;26430;48.818;9.244;2024-01-15T04:29:46;3.40;99.90
2447;DHT22;26430;48.818;9.244;2024-01-15T04:32:11;3.60;99.90
2447;DHT22;26430;48.818;9.244;2024-01-15T04:34:37;3.70;99.90
2447;DHT22;26430;48.818;9.244;2024-01-15T04:37:03;3.60;99.90
2447;DHT22;26430;48.818;9.244;2024-01-15T04:39:29;3.60;99.90
2447;DHT22;26430;48.818;9.244;2024-01-15T04:41:54;3.70;99.90
2447;DHT22;26430;48.818;9.244;2024-01-15T04:44:20;3.80;99.90
2447;DHT22;26430;48.818;9.244;2024-01-15T04:46:45;3.80;99.90
2447;DHT22;26430;48.818;9.244;2024-01-15T04:49:11;3.80;99.90
2447;DHT22;26430;48.818;9.244;2024-01-15T04:51:37;3.70;99.90
2447;DHT22;26430;48.818;9.244;2024-01-15T04:54:03;3.80;99.90
2447;DHT22;26430;48.818;9.244;2024-01-15T04:56:28;3.80;99.90
2447;DHT22;26430;48.818;9.244;2024-01-15T04:58:54;4.10;99.90
2447;DHT22;26430;48.818;9.244;2024-01-15T05:01:19;4.20;99.90
2447;DHT22;26430;48.818;9.244;2024-01-15T05:03:45;4.20;99.90
2447;DHT22;26430;48.818;9.244;2024-01-15T05:06:11;4.30;99.90
2447;DHT22;26430;48.818;9.244;2024-01-15T05:08:36;4.30;99.90
2447;DHT22;26430;48.818;9.244;2024-01-15T05:11:02;4.20;99.90
2447;DHT22;26430;48.818;9.244;2024-01-15T05:13:27;4.10;99.90
2447;DHT22;26430;48.818;9.244;2024-01-15T05:15:53;4.10;99.90
2447;DHT22;26430;48.818;9.244;2024-01-15T05:18:19;4.10;99.90
2447;DHT22;26430;48.818;9.244;2024-01-15T05:20:44;4.10;99.90
2447;DHT22;26430;48.818;9.244;2024-01-15T05:23:10;4.10;99.90
2447;DHT22;26430;48.818;9.244;2024-01-15T05:25:35;4.10;99.90
2447;DHT22;26430;48.818;9.244;2024-01-15T05:28:01;4.20;99.90
2447;DHT22;26430;48.818;9.244;2024-01-15T05:30:27;4.20;99.90
2447;DHT22;26430;48.818;9.244;2024-01-15T05:32:53;4.30;99.90
2447;DHT22;26430;48.818;9.244;2024-01-15T05:35:19;4.30;99.90
2447;DHT22;26430;48.818;9.244;2024-01-15T05:37:45;4.30;99.90
2447;DHT22;26430;48.818;9.244;2024-01-15T05:40:14;4.30;99.90
2447;DHT22;26430;48.818;9.244;2024-01-15T05:42:40;4.30;99.90
2447;DHT22;26430;48.818;9.244;2024-01-15T05:45:06;4.30;99.90
2447;DHT22;26430;48.818;9.244;2024-01-15T05:47:32;4.40;99.90
2447;DHT22;26430;48.818;9.244;2024-01-15T05:50:00;4.40;99.90
2447;DHT22;26430;48.818;9.244;2024-01-15T05:52:25;4.30;99.90
2447;DHT22;26430;48.818;9.244;2024-01-15T05:54:51;4.30;99.90
2447;DHT22;26430;48.818;9.244;2024-01-15T05:57:17;4.40;99.90
2447;DHT22;26430;48.818;9.244;2024-01-15T05:59:44;4.40;99.90
2447;DHT22;26430;48.818;9.244;2024-01-15T06:02:09;4.30;99.90
2447;DHT22;26430;48.818;9.244;2024-01-15T06:04:35;4.20;99.90
2447;DHT22;26430;48.818;9.244;2024-01-15T06:07:00;4.20;99.90
2447;DHT22;26430;48.818;9.244;2024-01-15T06:09:26;4.20;99.90
2447;DHT22;26430;48.818;9.244;2024-01-15T06:11:51;4.30;99.90
2447;DHT22;26430;48.818;9.244;2024-01-15T06:14:17;4.30;99.90
2447;DHT22;26430;48.818;9.244;2024-01-15T06:16:42;4.20;99.90
2447;DHT22;26430;48.818;9.244;2024-01-15T06:19:08;4.30;99.90
2447;DHT22;26430;48.818;9.244;2024-01-15T06:21:34;4.30;99.90
2447;DHT22;26430;48.818;9.244;2024-01-15T06:23:59;4.20;99.90
2447;DHT22;26430;48.818;9.244;2024-01-15T06:26:25;4.20;99.90
2447;DHT22;26430;48.818;9.244;2024-01-15T06:28:50;4.30;99.90
2447;DHT22;26430;48.818;9.244;2024-01-15T06:31:16;4.20;99.90
2447;DHT22;26430;48.818;9.244;2024-01-15T06:33:42;4.30;99.90
2447;DHT22;26430;48.818;9.244;2024-01-15T06:36:07;4.40;99.90
2447;DHT22;26430;48.818;9.244;2024-01-15T06:38:33;4.40;99.90
2447;DHT22;26430;48.818;9.244;2024-01-15T06:40:59;4.40;99.90
2447;DHT22;26430;48.818;9.244;2024-01-15T06:43:25;4.50;99.90
2447;DHT22;26430;48.818;9.244;2024-01-15T06:45:50;4.50;99.90
2447;DHT22;26430;48.818;9.244;2024-01-15T06:48:16;4.50;99.90
2447;DHT22;26430;48.818;9.244;2024-01-15T06:50:42;4.50;99.90
2447;DHT22;26430;48.818;9.244;2024-01-15T06:53:08;4.60;99.90
2447;DHT22;26430;48.818;9.244;2024-01-15T06:55:34;4.50;99.90
2447;DHT22;26430;48.818;9.244;2024-01-15T06:57:59;4.50;99.90
2447;DHT22;26430;48.818;9.244;2024-01-15T07:00:25;4.50;99.90
2447;DHT22;26430;48.818;9.244;2024-01-15T07:02:51;4.50;99.90
2447;DHT22;26430;48.818;9.244;2024-01-15T07:05:17;4.30;99.90
2447;DHT22;26430;48.818;9.244;2024-01-15T07:07:43;4.20;99.90
2447;DHT22;26430;48.818;9.244;2024-01-15T07:10:08;4.20;99.90
2447;DHT22;26430;48.818;9.244;2024-01-15T07:12:34;4.20;99.90
2447;DHT22;26430;48.818;9.244;2024-01-15T07:15:00;4.20;99.90
2447;DHT22;26430;48.818;9.244;2024-01-15T07:17:25;4.30;99.90
2447;DHT22;26430;48.818;9.244;2024-01-15T07:19:51;4.30;99.90
2447;DHT22;26430;48.818;9.244;2024-01-15T07:22:16;4.40;99.90
2447;DHT22;26430;48.818;9.244;2024-01-15T07:24:43;4.30;99.90
2447;DHT22;26430;48.818;9.244;2024-01-15T07:27:09;4.30;99.90
2447;DHT22;26430;48.818;9.244;2024-01-15T07:29:35;4.40;99.90
2447;DHT22;26430;48.818;9.244;2024-01-15T07:32:04;4.40;99.90
2447;DHT22;26430;48.818;9.244;2024-01-15T07:34:30;4.40;99.90
2447;DHT22;26430;48.818;9.244;2024-01-15T07:36:57;4.40;99.90
2447;DHT22;26430;48.818;9.244;2024-01-15T07:39:23;4.50;99.90
2447;DHT22;26430;48.818;9.244;2024-01-15T07:41:50;4.40;99.90
2447;DHT22;26430;48.818;9.244;2024-01-15T07:44:16;4.30;99.90
2447;DHT22;26430;48.818;9.244;2024-01-15T07:46:47;4.40;99.90
2447;DHT22;26430;48.818;9.244;2024-01-15T07:49:13;4.40;99.90
2447;DHT22;26430;48.818;9.244;2024-01-15T07:51:39;4.50;99.90
2447;DHT22;26430;48.818;9.244;2024-01-15T07:54:09;4.60;99.90
2447;DHT22;26430;48.818;9.244;2024-01-15T07:56:56;4.50;99.90
2447;DHT22;26430;48.818;9.244;2024-01-15T07:59:23;4.50;99.90
2447;DHT22;26430;48.818;9.244;2024-01-15T08:01:48;4.50;99.90
2447;DHT22;26430;48.818;9.244;2024-01-15T08:04:14;4.50;99.90
2447;DHT22;26430;48.818;9.244;2024-01-15T08:06:39;4.50;99.90
2447;DHT22;26430;48.818;9.244;2024-01-15T08:09:06;4.50;99.90
2447;DHT22;26430;48.818;9.244;2024-01-15T08:11:31;4.50;99.90
2447;DHT22;26430;48.818;9.244;2024-01-15T08:13:57;4.40;99.90
2447;DHT22;26430;48.818;9.244;2024-01-15T08:16:22;4.40;99.90
2447;DHT22;26430;48.818;9.244;2024-01-15T08:18:49;4.40;99.90
2447;DHT22;26430;48.818;9.244;2024-01-15T08:21:15;4.30;99.90
2447;DHT22;26430;48.818;9.244;2024-01-15T08:23:41;4.40;99.90
2447;DHT22;26430;48.818;9.244;2024-01-15T08:26:07;4.40;99.90
2447;DHT22;26430;48.818;9.244;2024-01-15T08:28:34;4.50;99.90
2447;DHT22;26430;48.818;9.244;2024-01-15T08:30:59;4.50;99.90
2447;DHT22;26430;48.818;9.244;2024-01-15T08:33:25;4.50;99.90
2447;DHT22;26430;48.818;9.244;2024-01-15T08:35:50;4.50;99.90
2447;DHT22;26430;48.818;9.244;2024-01-15T08:38:16;4.40;99.90
2447;DHT22;26430;48.818;9.244;2024-01-15T08:40:41;4.40;99.90
2447;DHT22;26430;48.818;9.244;2024-01-15T08:43:07;4.50;99.90
2447;DHT22;26430;48.818;9.244;2024-01-15T08:45:33;4.40;99.90
2447;DHT22;26430;48.818;9.244;2024-01-15T08:47:58;4.50;99.90
2447;DHT22;26430;48.818;9.244;2024-01-15T08:50:24;4.40;99.90
2447;DHT22;26430;48.818;9.244;2024-01-15T08:52:50;4.50;99.90
2447;DHT22;26430;48.818;9.244;2024-01-15T08:55:15;4.50;99.90
2447;DHT22;26430;48.818;9.244;2024-01-15T08:57:41;4.60;99.90
2447;DHT22;26430;48.818;9.244;2024-01-15T09:00:07;4.50;99.90
2447;DHT22;26430;48.818;9.244;2024-01-15T09:02:35;4.40;99.90
2447;DHT22;26430;48.818;9.244;2024-01-15T09:05:01;4.40;99.90
2447;DHT22;26430;48.818;9.244;2024-01-15T09:07:27;4.50;99.90
2447;DHT22;26430;48.818;9.244;2024-01-15T09:09:53;4.50;99.90
2447;DHT22;26430;48.818;9.244;2024-01-15T09:12:19;4.60;99.90
2447;DHT22;26430;48.818;9.244;2024-01-15T09:14:46;4.60;99.90
2447;DHT22;26430;48.818;9.244;2024-01-15T09:17:12;4.70;99.90
2447;DHT22;26430;48.818;9.244;2024-01-15T09:19:38;4.70;99.90
2447;DHT22;26430;48.818;9.244;2024-01-15T09:22:05;4.60;99.90
2447;DHT22;26430;48.818;9.244;2024-01-15T09:24:30;4.70;99.90
2447;DHT22;26430;48.818;9.244;2024-01-15T09:26:56;4.70;99.90
2447;DHT22;26430;48.818;9.244;2024-01-15T09:29:22;4.70;99.90
2447;DHT22;26430;48.818;9.244;2024-01-15T09:31:49;4.60;99.90
2447;DHT22;26430;48.818;9.244;2024-01-15T09:34:15;4.60;99.90
2447;DHT22;26430;48.818;9.244;2024-01-15T09:36:41;4.70;99.90
2447;DHT22;26430;48.818;9.244;2024-01-15T09:39:08;4.70;99.90
2447;DHT22;26430;48.818;9.244;2024-01-15T09:41:35;4.60;99.90
2447;DHT22;26430;48.818;9.244;2024-01-15T09:44:02;4.70;99.90
2447;DHT22;26430;48.818;9.244;2024-01-15T09:46:28;4.80;99.90
2447;DHT22;26430;48.818;9.244;2024-01-15T09:48:54;4.80;99.90
2447;DHT22;26430;48.818;9.244;2024-01-15T09:51:20;4.80;99.90
2447;DHT22;26430;48.818;9.244;2024-01-15T09:53:47;4.90;99.90
2447;DHT22;26430;48.818;9.244;2024-01-15T09:56:14;4.90;99.90
2447;DHT22;26430;48.818;9.244;2024-01-15T09:58:41;5.00;99.90
2447;DHT22;26430;48.818;9.244;2024-01-15T10:01:08;5.00;99.90
2447;DHT22;26430;48.818;9.244;2024-01-15T10:03:33;5.10;99.90
2447;DHT22;26430;48.818;9.244;2024-01-15T10:05:59;4.90;99.80
2447;DHT22;26430;48.818;9.244;2024-01-15T10:08:25;4.90;99.90
2447;DHT22;26430;48.818;9.244;2024-01-15T10:10:51;5.00;99.90
2447;DHT22;26430;48.818;9.244;2024-01-15T10:13:17;5.00;99.90
2447;DHT22;26430;48.818;9.244;2024-01-15T10:15:45;5.00;99.80
2447;DHT22;26430;48.818;9.244;2024-01-15T10:18:12;4.90;99.90
2447;DHT22;26430;48.818;9.244;2024-01-15T10:20:39;4.90;99.90
2447;DHT22;26430;48.818;9.244;2024-01-15T10:23:05;4.90;99.90
2447;DHT22;26430;48.818;9.244;2024-01-15T10:25:30;4.90;99.90
2447;DHT22;26430;48.818;9.244;2024-01-15T10:28:01;4.90;99.90
2447;DHT22;26430;48.818;9.244;2024-01-15T10:30:27;4.90;99.90
2447;DHT22;26430;48.818;9.244;2024-01-15T10:33:00;5.00;99.90
2447;DHT22;26430;48.818;9.244;2024-01-15T10:35:33;5.10;99.90
2447;DHT22;26430;48.818;9.244;2024-01-15T10:38:00;5.10;99.90
2447;DHT22;26430;48.818;9.244;2024-01-15T10:40:26;5.10;99.90
2447;DHT22;26430;48.818;9.244;2024-01-15T10:42:52;5.00;99.90
2447;DHT22;26430;48.818;9.244;2024-01-15T10:45:18;5.00;99.90
2447;DHT22;26430;48.818;9.244;2024-01-15T10:47:44;5.10;99.90
2447;DHT22;26430;48.818;9.244;2024-01-15T10:50:10;5.00;99.90
2447;DHT22;26430;48.818;9.244;2024-01-15T10:52:40;5.10;99.90
2447;DHT22;26430;48.818;9.244;2024-01-15T10:55:09;5.10;99.90
2447;DHT22;26430;48.818;9.244;2024-01-15T10:57:36;5.00;99.90
2447;DHT22;26430;48.818;9.244;2024-01-15T11:00:03;5.10;99.90
2447;DHT22;26430;48.818;9.244;2024-01-15T11:02:32;5.00;99.90
2447;DHT22;26430;48.818;9.244;2024-01-15T11:04:59;5.00;99.90
2447;DHT22;26430;48.818;9.244;2024-01-15T11:07:26;5.20;99.90
2447;DHT22;26430;48.818;9.244;2024-01-15T11:09:52;4.90;99.90
2447;DHT22;26430;48.818;9.244;2024-01-15T11:12:18;5.00;99.90
2447;DHT22;26430;48.818;9.244;2024-01-15T11:14:50;5.00;99.90
2447;DHT22;26430;48.818;9.244;2024-01-15T11:17:17;5.00;99.90
2447;DHT22;26430;48.818;9.244;2024-01-15T11:19:47;5.00;99.90
2447;DHT22;26430;48.818;9.244;2024-01-15T11:25:05;5.10;99.90
2447;DHT22;26430;48.818;9.244;2024-01-15T11:27:41;5.00;99.90
2447;DHT22;26430;48.818;9.244;2024-01-15T11:30:11;5.00;99.90
2447;DHT22;26430;48.818;9.244;2024-01-15T11:32:37;5.00;99.90
2447;DHT22;26430;48.818;9.244;2024-01-15T11:35:06;4.80;99.90
2447;DHT22;26430;48.818;9.244;2024-01-15T11:42:58;4.90;99.90
2447;DHT22;26430;48.818;9.244;2024-01-15T11:45:24;4.90;99.90
2447;DHT22;26430;48.818;9.244;2024-01-15T11:50:45;4.90;99.90
2447;DHT22;26430;48.818;9.244;2024-01-15T11:56:02;5.10;99.90
2447;DHT22;26430;48.818;9.244;2024-01-15T11:58:28;5.10;99.90
2447;DHT22;26430;48.818;9.244;2024-01-15T12:00:53;5.20;99.90
2447;DHT22;26430;48.818;9.244;2024-01-15T12:03:23;5.10;99.90
2447;DHT22;26430;48.818;9.244;2024-01-15T12:05:52;5.00;99.90
2447;DHT22;26430;48.818;9.244;2024-01-15T12:08:22;5.00;99.90
2447;DHT22;26430;48.818;9.244;2024-01-15T12:10:47;5.10;99.90
2447;DHT22;26430;48.818;9.244;2024-01-15T12:13:14;5.10;99.90
2447;DHT22;26430;48.818;9.244;2024-01-15T12:15:41;5.10;99.90
2447;DHT22;26430;48.818;9.244;2024-01-15T12:18:10;5.00;99.90
2447;DHT22;26430;48.818;9.244;2024-01-15T12:20:36;4.90;99.90
2447;DHT22;26430;48.818;9.244;2024-01-15T12:23:02;4.90;99.90
2447;DHT22;26430;48.818;9.244;2024-01-15T12:25:31;5.00;99.90
2447;DHT22;26430;48.818;9.244;2024-01-15T12:27:58;4.90;99.90
2447;DHT22;26430;48.818;9.244;2024-01-15T12:30:26;5.00;99.90
2447;DHT22;26430;48.818;9.244;2024-01-15T12:32:51;5.00;99.90
2447;DHT22;26430;48.818;9.244;2024-01-15T12:35:17;4.90;99.90
2447;DHT22;26430;48.818;9.244;2024-01-15T12:37:43;4.90;99.90
2447;DHT22;26430;48.818;9.244;2024-01-15T12:40:11;4.90;99.90
2447;DHT22;26430;48.818;9.244;2024-01-15T12:42:39;4.90;99.90
2447;DHT22;26430;48.818;9.244;2024-01-15T12:45:06;4.80;99.90
2447;DHT22;26430;48.818;9.244;2024-01-15T12:47:31;4.80;99.90
2447;DHT22;26430;48.818;9.244;2024-01-15T12:49:58;4.90;99.90
2447;DHT22;26430;48.818;9.244;2024-01-15T12:52:26;4.80;99.90
2447;DHT22;26430;48.818;9.244;2024-01-15T12:54:52;4.90;99.90
2447;DHT22;26430;48.818;9.244;2024-01-15T12:57:18;4.80;99.90
2447;DHT22;26430;48.818;9.244;2024-01-15T12:59:44;4.80;99.90
2447;DHT22;26430;48.818;9.244;2024-01-15T13:02:13;4.90;99.90
2447;DHT22;26430;48.818;9.244;2024-01-15T13:04:39;4.80;99.90
2447;DHT22;26430;48.818;9.244;2024-01-15T13:07:08;4.80;99.90
2447;DHT22;26430;48.818;9.244;2024-01-15T13:09:34;4.70;99.90
2447;DHT22;26430;48.818;9.244;2024-01-15T13:12:03;4.80;99.90
2447;DHT22;26430;48.818;9.244;2024-01-15T13:14:29;4.90;99.90
2447;DHT22;26430;48.818;9.244;2024-01-15T13:16:55;4.90;99.90
2447;DHT22;26430;48.818;9.244;2024-01-15T13:19:22;4.80;99.90
2447;DHT22;26430;48.818;9.244;2024-01-15T13:21:48;4.80;99.90
2447;DHT22;26430;48.818;9.244;2024-01-15T13:24:14;4.80;99.90
2447;DHT22;26430;48.818;9.244;2024-01-15T13:26:39;4.80;99.90
2447;DHT22;26430;48.818;9.244;2024-01-15T13:29:05;4.80;99.90
2447;DHT22;26430;48.818;9.244;2024-01-15T13:31:32;4.80;99.90
2447;DHT22;26430;48.818;9.244;2024-01-15T13:33:57;4.70;99.90
2447;DHT22;26430;48.818;9.244;2024-01-15T13:36:23;4.70;99.90
2447;DHT22;26430;48.818;9.244;2024-01-15T13:38:50;4.70;99.90
2447;DHT22;26430;48.818;9.244;2024-01-15T13:41:17;4.80;99.90
2447;DHT22;26430;48.818;9.244;2024-01-15T13:43:55;4.80;99.90
2447;DHT22;26430;48.818;9.244;2024-01-15T13:46:24;4.80;99.90
2447;DHT22;26430;48.818;9.244;2024-01-15T13:48:50;4.90;99.90
2447;DHT22;26430;48.818;9.244;2024-01-15T13:51:15;4.90;99.90
2447;DHT22;26430;48.818;9.244;2024-01-15T13:53:42;4.90;99.90
2447;DHT22;26430;48.818;9.244;2024-01-15T13:56:08;5.00;99.90
2447;DHT22;26430;48.818;9.244;2024-01-15T13:58:35;5.10;99.90
2447;DHT22;26430;48.818;9.244;2024-01-15T14:01:01;5.10;99.90
2447;DHT22;26430;48.818;9.244;2024-01-15T14:03:29;5.10;99.90
2447;DHT22;26430;48.818;9.244;2024-01-15T14:05:55;5.10;99.90
2447;DHT22;26430;48.818;9.244;2024-01-15T14:08:20;5.10;99.90
2447;DHT22;26430;48.818;9.244;2024-01-15T14:10:46;5.10;99.90
2447;DHT22;26430;48.818;9.244;2024-01-15T14:13:11;5.10;99.90
2447;DHT22;26430;48.818;9.244;2024-01-15T14:15:37;5.10;99.90
2447;DHT22;26430;48.818;9.244;2024-01-15T14:18:03;5.20;99.90
2447;DHT22;26430;48.818;9.244;2024-01-15T14:20:29;5.20;99.90
2447;DHT22;26430;48.818;9.244;2024-01-15T14:22:54;5.20;99.90
2447;DHT22;26430;48.818;9.244;2024-01-15T14:25:20;5.20;99.90
2447;DHT22;26430;48.818;9.244;2024-01-15T14:27:46;5.20;99.90
2447;DHT22;26430;48.818;9.244;2024-01-15T14:30:13;5.20;99.90
2447;DHT22;26430;48.818;9.244;2024-01-15T14:32:39;5.20;99.90
2447;DHT22;26430;48.818;9.244;2024-01-15T14:35:05;5.20;99.90
2447;DHT22;26430;48.818;9.244;2024-01-15T14:37:33;5.20;99.90
2447;DHT22;26430;48.818;9.244;2024-01-15T14:39:59;5.30;99.90
2447;DHT22;26430;48.818;9.244;2024-01-15T14:42:24;5.30;99.90
2447;DHT22;26430;48.818;9.244;2024-01-15T14:44:50;5.30;99.90
2447;DHT22;26430;48.818;9.244;2024-01-15T14:47:16;5.50;99.90
2447;DHT22;26430;48.818;9.244;2024-01-15T14:49:41;5.50;99.90
2447;DHT22;26430;48.818;9.244;2024-01-15T14:52:07;5.40;99.90
2447;DHT22;26430;48.818;9.244;2024-01-15T14:54:32;5.40;99.90
2447;DHT22;26430;48.818;9.244;2024-01-15T14:56:58;5.30;99.90
2447;DHT22;26430;48.818;9.244;2024-01-15T14:59:24;5.30;99.90
2447;DHT22;26430;48.818;9.244;2024-01-15T15:01:49;5.30;99.90
2447;DHT22;26430;48.818;9.244;2024-01-15T15:04:15;5.30;99.90
2447;DHT22;26430;48.818;9.244;2024-01-15T15:06:40;5.20;99.90
2447;DHT22;26430;48.818;9.244;2024-01-15T15:09:06;5.20;99.90
2447;DHT22;26430;48.818;9.244;2024-01-15T15:11:35;5.10;99.90
2447;DHT22;26430;48.818;9.244;2024-01-15T15:14:01;5.10;99.90
2447;DHT22;26430;48.818;9.244;2024-01-15T15:16:27;5.10;99.90
2447;DHT22;26430;48.818;9.244;2024-01-15T15:18:55;5.10;99.90
2447;DHT22;26430;48.818;9.244;2024-01-15T15:21:21;5.10;99.90
2447;DHT22;26430;48.818;9.244;2024-01-15T15:23:46;5.10;99.90
2447;DHT22;26430;48.818;9.244;2024-01-15T15:26:13;5.10;99.90
2447;DHT22;26430;48.818;9.244;2024-01-15T15:28:39;5.00;99.90
2447;DHT22;26430;48.818;9.244;2024-01-15T15:31:05;5.00;99.90
2447;DHT22;26430;48.818;9.244;2024-01-15T15:33:34;4.90;99.90
2447;DHT22;26430;48.818;9.244;2024-01-15T15:35:59;4.80;99.90
2447;DHT22;26430;48.818;9.244;2024-01-15T15:38:30;4.90;99.90
2447;DHT22;26430;48.818;9.244;2024-01-15T15:40:56;5.00;99.90
2447;DHT22;26430;48.818;9.244;2024-01-15T15:43:25;5.00;99.90
2447;DHT22;26430;48.818;9.244;2024-01-15T15:45:50;4.90;99.90
2447;DHT22;26430;48.818;9.244;2024-01-15T15:48:16;5.00;99.90
2447;DHT22;26430;48.818;9.244;2024-01-15T15:50:41;5.00;99.90
2447;DHT22;26430;48.818;9.244;2024-01-15T15:53:07;5.00;99.90
2447;DHT22;26430;48.818;9.244;2024-01-15T15:55:32;5.00;99.90
2447;DHT22;26430;48.818;9.244;2024-01-15T15:58:04;5.10;99.90
2447;DHT22;26430;48.818;9.244;2024-01-15T16:00:31;5.00;99.90
2447;DHT22;26430;48.818;9.244;2024-01-15T16:02:56;5.10;99.90
2447;DHT22;26430;48.818;9.244;2024-01-15T16:05:22;5.10;99.90
2447;DHT22;26430;48.818;9.244;2024-01-15T16:07:48;5.20;99.90
2447;DHT22;26430;48.818;9.244;2024-01-15T16:10:14;5.30;99.90